Terminal Aerodrome Forecast
Issued by NWS

Home | Current Version | Previous Version | Text Only | Print | Product List | Glossary On
Versions: 1 2 3 4 5 6 7 8 9 10 11 12 13 14 15 16 17 18 19 20 21 22 23 24 25 26 27 28 29 30 31 32 33 34 35 36
000
FTPA31 PHFO 021700
TAFITO
TAF
PHTO 021736Z 0218/0318 28006KT P6SM VCSH SCT015 BKN025 OVC035
      TEMPO 0218/0222 4SM -RA BR
     FM022200 02009KT P6SM VCSH SCT015 BKN035
     FM030700 26008KT P6SM VCSH SCT015 SCT035=

USA.gov is the U.S. government's official web portal to all federal, state and local government web resources and services.